Time;durP1;ratioP1;P1;durP2;ratioP2;P2;SDS_P1;SDS_P2;PMS_P1;PMS_P2;Temp;Humidity;BMP_temperature;BMP_pressure;BME280_temperature;BME280_humidity;BME280_pressure;Samples;Min_cycle;Max_cycle;Signal;HPM_P1;HPM_P2
2022/09/06 00:01:08;;;;;;;;;11.25;10.50;;;27.86;101860.85;;;;117458;1190;24853;-59
2022/09/06 00:03:36;;;;;;;;;12.00;10.00;;;27.86;101863.08;;;;117479;1189;24896;-60
2022/09/06 00:06:09;;;;;;;;;8.75;8.75;;;27.85;101863.70;;;;117454;1189;25116;-59
2022/09/06 00:08:39;;;;;;;;;15.00;10.00;;;27.85;101860.68;;;;117479;1189;25038;-59
2022/09/06 00:11:08;;;;;;;;;9.75;8.00;;;27.85;101860.79;;;;117871;1188;25570;-59
2022/09/06 00:13:37;;;;;;;;;8.00;7.00;;;27.84;101858.38;;;;117496;1189;25064;-59
2022/09/06 00:16:14;;;;;;;;;10.00;9.75;;;27.83;101858.27;;;;117511;1188;26055;-60
2022/09/06 00:18:43;;;;;;;;;9.00;8.00;;;27.87;101856.41;;;;117531;1188;25646;-62
2022/09/06 00:21:16;;;;;;;;;9.00;9.00;;;27.88;101854.56;;;;117489;1189;25015;-62
2022/09/06 00:23:44;;;;;;;;;9.67;8.00;;;27.87;101853.63;;;;117496;1188;25322;-62
2022/09/06 00:26:13;;;;;;;;;12.25;9.50;;;27.87;101855.66;;;;117546;1188;25366;-60
2022/09/06 00:28:42;;;;;;;;;10.75;10.00;;;27.88;101853.78;;;;117423;1188;24805;-58
2022/09/06 00:31:16;;;;;;;;;14.50;8.25;;;27.88;101851.82;;;;117435;1188;25357;-60
2022/09/06 00:33:45;;;;;;;;;11.00;8.75;;;27.90;101848.77;;;;117574;1189;25533;-61
2022/09/06 00:36:14;;;;;;;;;7.75;7.75;;;27.91;101850.41;;;;117376;1190;24817;-60
2022/09/06 00:38:42;;;;;;;;;8.50;8.50;;;27.89;101848.96;;;;117535;1188;25712;-59
2022/09/06 00:41:12;;;;;;;;;10.25;6.75;;;27.90;101848.53;;;;117486;1189;25412;-61
2022/09/06 00:43:41;;;;;;;;;9.33;7.67;;;27.89;101846.26;;;;117429;1188;25123;-61
2022/09/06 00:46:14;;;;;;;;;9.67;8.00;;;27.89;101850.05;;;;117793;1188;25458;-60
2022/09/06 00:48:44;;;;;;;;;8.00;6.33;;;27.88;101851.29;;;;117486;1189;25603;-58
2022/09/06 00:51:14;;;;;;;;;8.25;8.25;;;27.88;101852.89;;;;117479;1189;25593;-59
2022/09/06 00:53:43;;;;;;;;;9.00;9.00;;;27.88;101852.55;;;;117918;1187;25022;-60
2022/09/06 00:56:12;;;;;;;;;9.00;8.00;;;27.87;101850.27;;;;117420;1189;24825;-60
2022/09/06 00:58:41;;;;;;;;;9.50;8.00;;;27.87;101847.94;;;;117436;1190;25774;-60
2022/09/06 01:01:10;;;;;;;;;6.75;6.25;;;27.88;101845.00;;;;117467;1189;25228;-59
2022/09/06 01:03:39;;;;;;;;;9.25;9.00;;;27.87;101846.50;;;;117413;1190;24951;-60
2022/09/06 01:06:16;;;;;;;;;8.00;8.00;;;27.86;101848.19;;;;117453;1188;25220;-60
2022/09/06 01:08:59;;;;;;;;;7.50;7.50;;;27.87;101844.75;;;;117403;1188;25298;-60
2022/09/06 01:11:39;;;;;;;;;11.00;9.00;;;27.85;101846.20;;;;117441;1189;25131;-59
2022/09/06 01:14:34;;;;;;;;;8.50;8.25;;;27.84;101847.71;;;;117382;1190;25593;-60
2022/09/06 01:17:35;;;;;;;;;12.00;10.50;;;27.89;101843.02;;;;117322;1188;24849;-59
2022/09/06 01:20:15;;;;;;;;;11.00;8.50;;;27.97;101839.73;;;;117756;1187;24887;-60
2022/09/06 01:23:03;;;;;;;;;9.00;7.75;;;27.95;101842.48;;;;117515;1188;24887;-59
2022/09/06 01:26:04;;;;;;;;;7.25;7.25;;;27.91;101841.45;;;;117849;1188;25604;-59
2022/09/06 01:28:38;;;;;;;;;8.00;8.00;;;27.90;101838.38;;;;117817;1188;25476;-59
2022/09/06 01:31:23;;;;;;;;;10.00;9.00;;;27.86;101837.15;;;;117367;1191;25673;-59
2022/09/06 01:34:07;;;;;;;;;8.75;8.50;;;27.88;101834.06;;;;117412;1189;25120;-59
2022/09/06 01:36:49;;;;;;;;;8.25;7.50;;;27.85;101830.48;;;;117397;1190;25027;-60
2022/09/06 01:39:38;;;;;;;;;9.00;8.33;;;27.91;101827.40;;;;117416;1189;25256;-58
2022/09/06 01:42:18;;;;;;;;;10.50;9.00;;;27.90;101825.14;;;;117440;1190;25403;-59
2022/09/06 01:45:01;;;;;;;;;10.50;8.75;;;27.89;101828.30;;;;117390;1190;25328;-58
2022/09/06 01:48:22;;;;;;;;;13.00;8.50;;;27.89;101827.52;;;;117455;1189;24914;-60
2022/09/06 01:51:16;;;;;;;;;7.50;7.00;;;27.97;101830.52;;;;117043;1194;24732;-59
2022/09/06 01:54:04;;;;;;;;;10.00;8.00;;;27.99;101830.45;;;;117523;1189;24859;-60
2022/09/06 01:56:56;;;;;;;;;11.75;10.25;;;28.00;101827.66;;;;117497;1188;25057;-59
2022/09/06 01:59:55;;;;;;;;;7.00;7.00;;;28.00;101824.02;;;;117381;1190;25392;-60
2022/09/06 02:02:57;;;;;;;;;10.33;8.33;;;28.03;101823.08;;;;117306;1190;24753;-58
2022/09/06 02:05:50;;;;;;;;;14.67;10.33;;;28.10;101820.23;;;;117324;1190;24882;-60
2022/09/06 02:08:33;;;;;;;;;10.67;9.33;;;28.06;101819.95;;;;117408;1190;24782;-61
2022/09/06 02:11:04;;;;;;;;;9.75;6.25;;;28.02;101818.52;;;;117422;1190;25626;-61
2022/09/06 02:13:36;;;;;;;;;6.50;6.25;;;27.95;101821.54;;;;117413;1190;24818;-60
2022/09/06 02:16:07;;;;;;;;;7.33;7.33;;;27.92;101819.23;;;;117394;1190;25353;-60
2022/09/06 02:19:18;;;;;;;;;7.67;7.67;;;27.91;101815.77;;;;117437;1190;25362;-59
2022/09/06 02:21:49;;;;;;;;;8.25;7.75;;;27.96;101813.19;;;;117096;1193;25511;-59
2022/09/06 02:24:26;;;;;;;;;6.25;5.00;;;27.92;101812.77;;;;117370;1189;25439;-60
2022/09/06 02:26:55;;;;;;;;;14.00;10.00;;;27.92;101816.10;;;;117497;1189;25429;-59
2022/09/06 02:29:23;;;;;;;;;9.25;8.00;;;27.90;101824.69;;;;117487;1189;25974;-60
2022/09/06 02:31:57;;;;;;;;;7.75;7.75;;;27.89;101830.15;;;;117462;1189;25246;-61
2022/09/06 02:34:26;;;;;;;;;7.00;7.00;;;27.88;101830.46;;;;117461;1189;25047;-63
2022/09/06 02:36:55;;;;;;;;;9.75;9.75;;;27.88;101829.73;;;;117470;1189;25162;-62
2022/09/06 02:39:23;;;;;;;;;7.00;6.25;;;27.86;101828.95;;;;117420;1190;25478;-60
2022/09/06 02:41:53;;;;;;;;;4.33;4.33;;;27.84;101834.95;;;;117456;1189;24800;-59
2022/09/06 02:44:21;;;;;;;;;5.25;5.25;;;27.82;101832.23;;;;117430;1190;24869;-60
2022/09/06 02:46:50;;;;;;;;;13.50;10.50;;;27.80;101832.52;;;;117471;1188;24937;-59
2022/09/06 02:49:24;;;;;;;;;7.00;7.00;;;27.80;101834.23;;;;117491;1186;25305;-61
2022/09/06 02:51:52;;;;;;;;;9.00;7.75;;;27.79;101832.30;;;;117516;1189;25387;-60
2022/09/06 02:54:20;;;;;;;;;7.33;7.33;;;27.79;101832.35;;;;117396;1190;25252;-60
2022/09/06 02:56:49;;;;;;;;;7.75;7.75;;;27.78;101832.65;;;;117176;1190;25481;-60
2022/09/06 02:59:19;;;;;;;;;8.50;7.00;;;27.76;101833.94;;;;117404;1190;24876;-60
2022/09/06 03:01:48;;;;;;;;;8.50;7.50;;;27.76;101830.08;;;;117446;1189;25277;-60
2022/09/06 03:04:16;;;;;;;;;8.00;8.00;;;27.76;101828.31;;;;117391;1189;24830;-60
2022/09/06 03:06:44;;;;;;;;;7.50;7.25;;;27.77;101823.32;;;;117394;1190;25427;-60
2022/09/06 03:09:13;;;;;;;;;6.00;6.00;;;27.75;101824.63;;;;117435;1189;25342;-59
2022/09/06 03:11:42;;;;;;;;;9.33;9.00;;;27.75;101828.87;;;;117451;1190;24708;-60
2022/09/06 03:14:11;;;;;;;;;8.00;8.00;;;27.75;101832.70;;;;117535;1188;25149;-61
2022/09/06 03:16:39;;;;;;;;;8.50;7.00;;;27.76;101835.42;;;;117510;1188;25376;-60
2022/09/06 03:19:08;;;;;;;;;8.67;5.33;;;27.75;101830.77;;;;117513;1189;25600;-59
2022/09/06 03:21:36;;;;;;;;;7.25;7.25;;;27.73;101829.02;;;;117396;1190;25524;-59
2022/09/06 03:24:05;;;;;;;;;10.75;7.75;;;27.73;101832.00;;;;117507;1189;25510;-60
2022/09/06 03:26:33;;;;;;;;;7.50;7.50;;;27.75;101836.06;;;;117845;1186;25214;-59
2022/09/06 03:29:02;;;;;;;;;10.00;7.50;;;27.74;101834.77;;;;117474;1188;25574;-60
2022/09/06 03:31:30;;;;;;;;;7.75;5.00;;;27.74;101831.48;;;;117492;1188;25124;-61
2022/09/06 03:33:59;;;;;;;;;9.00;6.75;;;27.75;101830.08;;;;117460;1188;24806;-59
2022/09/06 03:36:28;;;;;;;;;9.00;7.00;;;27.74;101832.56;;;;117481;1188;25245;-60
2022/09/06 03:38:57;;;;;;;;;8.00;6.50;;;27.74;101833.65;;;;117411;1189;25315;-60
2022/09/06 03:41:25;;;;;;;;;10.50;8.50;;;27.75;101837.31;;;;117391;1188;25369;-59
2022/09/06 03:43:54;;;;;;;;;7.00;7.00;;;27.73;101843.48;;;;117425;1190;25220;-59
2022/09/06 03:46:22;;;;;;;;;8.33;8.33;;;27.73;101848.29;;;;117460;1189;25494;-59
2022/09/06 03:48:51;;;;;;;;;3.50;2.50;;;27.72;101849.54;;;;117454;1189;24986;-59
2022/09/06 03:51:19;;;;;;;;;6.00;5.50;;;27.72;101849.30;;;;117502;1189;24676;-59
2022/09/06 03:53:48;;;;;;;;;7.25;7.25;;;27.72;101851.91;;;;117512;1186;25273;-60
2022/09/06 03:56:16;;;;;;;;;8.50;7.75;;;27.72;101851.53;;;;117469;1189;25562;-60
2022/09/06 03:58:45;;;;;;;;;12.25;8.00;;;27.69;101854.20;;;;117357;1188;26088;-59
2022/09/06 04:01:13;;;;;;;;;7.25;6.25;;;27.70;101857.27;;;;117366;1190;25223;-59
2022/09/06 04:03:42;;;;;;;;;5.50;4.75;;;27.74;101857.14;;;;117488;1188;25622;-59
2022/09/06 04:06:10;;;;;;;;;5.75;4.50;;;27.76;101856.14;;;;117427;1188;25017;-60
2022/09/06 04:08:39;;;;;;;;;6.00;5.00;;;27.76;101856.09;;;;117412;1189;25543;-58
2022/09/06 04:11:07;;;;;;;;;9.00;7.00;;;27.75;101854.42;;;;117490;1188;25579;-57
2022/09/06 04:13:36;;;;;;;;;7.67;5.00;;;27.75;101849.45;;;;117538;1188;24825;-60
2022/09/06 04:16:05;;;;;;;;;4.25;4.25;;;27.74;101847.91;;;;117534;1188;24741;-59
2022/09/06 04:18:33;;;;;;;;;7.50;6.25;;;27.74;101844.68;;;;117857;1187;25090;-59
2022/09/06 04:21:02;;;;;;;;;8.00;8.00;;;27.73;101841.14;;;;117484;1188;25258;-60
2022/09/06 04:23:31;;;;;;;;;7.00;6.25;;;27.71;101838.17;;;;117513;1188;25682;-59
2022/09/06 04:26:06;;;;;;;;;8.75;7.75;;;27.73;101839.66;;;;117382;1190;24962;-60
2022/09/06 04:28:34;;;;;;;;;4.75;4.75;;;27.74;101841.54;;;;117199;1190;24821;-60
2022/09/06 04:31:03;;;;;;;;;7.67;7.00;;;27.73;101843.02;;;;117341;1190;25040;-60
2022/09/06 04:33:34;;;;;;;;;10.33;7.33;;;27.75;101846.33;;;;118274;1190;25564;-60
2022/09/06 04:36:05;;;;;;;;;7.50;7.50;;;27.99;101841.39;;;;118506;1191;25190;-61
2022/09/06 04:38:36;;;;;;;;;7.67;7.33;;;28.20;101844.19;;;;117325;1190;25451;-62
2022/09/06 04:41:06;;;;;;;;;7.25;7.00;;;28.11;101842.77;;;;117418;1191;25625;-61
2022/09/06 04:43:34;;;;;;;;;10.25;7.25;;;28.04;101841.95;;;;117437;1189;25513;-60
2022/09/06 04:46:11;;;;;;;;;7.75;6.50;;;27.96;101846.42;;;;117435;1190;24997;-61
2022/09/06 04:48:39;;;;;;;;;7.75;7.00;;;27.93;101850.88;;;;117442;1190;25153;-61
2022/09/06 04:51:08;;;;;;;;;5.50;5.50;;;27.90;101856.09;;;;117433;1190;24834;-61
2022/09/06 04:53:36;;;;;;;;;8.67;7.33;;;27.87;101856.92;;;;117393;1191;25552;-60
2022/09/06 04:56:05;;;;;;;;;5.75;5.00;;;27.84;101853.27;;;;117362;1190;25049;-59
2022/09/06 04:58:33;;;;;;;;;7.25;7.25;;;27.84;101853.13;;;;117448;1190;25518;-60
2022/09/06 05:01:02;;;;;;;;;8.50;6.50;;;27.82;101851.67;;;;117383;1190;24975;-61
2022/09/06 05:03:31;;;;;;;;;7.25;7.00;;;27.81;101850.23;;;;117387;1189;25078;-59
2022/09/06 05:06:20;;;;;;;;;9.25;9.00;;;27.78;101848.23;;;;117372;1187;24885;-60
2022/09/06 05:08:49;;;;;;;;;7.75;5.25;;;27.83;101848.70;;;;117459;1190;25520;-60
2022/09/06 05:11:18;;;;;;;;;8.00;6.50;;;27.83;101846.16;;;;117419;1189;24745;-59
2022/09/06 05:13:48;;;;;;;;;8.00;6.50;;;27.80;101845.21;;;;117425;1189;24845;-60
2022/09/06 05:16:17;;;;;;;;;7.50;6.25;;;27.80;101846.23;;;;117406;1189;25262;-61
2022/09/06 05:18:46;;;;;;;;;8.00;6.75;;;27.80;101846.40;;;;117389;1190;24993;-60
2022/09/06 05:21:14;;;;;;;;;8.00;6.50;;;27.77;101847.41;;;;117359;1189;25313;-58
2022/09/06 05:23:43;;;;;;;;;10.50;9.00;;;27.76;101846.04;;;;117457;1189;25658;-61
2022/09/06 05:26:11;;;;;;;;;7.00;7.00;;;27.76;101845.13;;;;117500;1190;25382;-61
2022/09/06 05:28:40;;;;;;;;;9.00;8.00;;;27.77;101843.84;;;;117437;1189;24954;-60
2022/09/06 05:31:24;;;;;;;;;7.75;6.50;;;27.75;101845.74;;;;117427;1189;25504;-61
2022/09/06 05:33:53;;;;;;;;;5.75;5.25;;;27.79;101841.52;;;;117458;1189;25306;-60
2022/09/06 05:36:22;;;;;;;;;6.50;6.50;;;27.79;101842.63;;;;117467;1190;24933;-60
2022/09/06 05:38:51;;;;;;;;;7.25;7.25;;;27.81;101842.67;;;;117493;1190;25629;-61
2022/09/06 05:41:21;;;;;;;;;6.00;6.00;;;27.78;101842.05;;;;117490;1189;24724;-62
2022/09/06 05:43:49;;;;;;;;;11.25;8.75;;;27.72;101838.50;;;;117484;1189;24911;-61
2022/09/06 05:46:18;;;;;;;;;12.00;11.00;;;27.73;101839.77;;;;117433;1190;25235;-61
2022/09/06 05:49:00;;;;;;;;;9.00;7.67;;;27.74;101839.45;;;;117444;1190;24918;-63
2022/09/06 05:51:28;;;;;;;;;10.33;8.67;;;27.76;101835.16;;;;117433;1188;25622;-61
2022/09/06 05:53:57;;;;;;;;;14.00;10.00;;;27.75;101834.86;;;;117413;1189;25453;-62
2022/09/06 05:56:25;;;;;;;;;11.50;9.50;;;27.84;101831.98;;;;117319;1190;24880;-59
2022/09/06 05:58:54;;;;;;;;;10.50;9.75;;;27.85;101832.79;;;;117442;1189;25251;-60
2022/09/06 06:01:28;;;;;;;;;9.50;8.25;;;27.82;101831.23;;;;117380;1190;24849;-61
2022/09/06 06:04:01;;;;;;;;;5.50;5.50;;;27.78;101834.99;;;;117443;1189;24870;-60
2022/09/06 06:06:32;;;;;;;;;8.75;8.75;;;27.87;101820.86;;;;117508;1188;25094;-62
2022/09/06 06:09:01;;;;;;;;;9.33;9.00;;;27.82;101836.39;;;;117504;1188;25658;-62
2022/09/06 06:11:31;;;;;;;;;13.50;8.00;;;27.86;101838.52;;;;117417;1189;25127;-63
2022/09/06 06:14:02;;;;;;;;;14.50;10.00;;;27.88;101839.45;;;;117623;1189;25913;-62
2022/09/06 06:16:30;;;;;;;;;9.50;9.00;;;27.88;101846.66;;;;117437;1190;25534;-61
2022/09/06 06:18:59;;;;;;;;;12.50;6.75;;;27.82;101850.14;;;;117407;1188;25640;-62
2022/09/06 06:21:29;;;;;;;;;7.50;7.00;;;27.90;101850.15;;;;119442;1190;25238;-62
2022/09/06 06:24:02;;;;;;;;;10.00;7.75;;;28.28;101846.37;;;;118675;1189;25218;-63
2022/09/06 06:26:33;;;;;;;;;7.75;6.25;;;28.56;101853.04;;;;119393;1191;25449;-63
2022/09/06 06:29:04;;;;;;;;;8.00;7.50;;;28.84;101854.31;;;;119413;1189;24915;-62
2022/09/06 06:31:33;;;;;;;;;7.25;7.25;;;29.05;101851.27;;;;119526;1186;25115;-62
2022/09/06 06:34:02;;;;;;;;;7.50;6.50;;;29.24;101857.98;;;;118031;1188;25737;-61
2022/09/06 06:36:33;;;;;;;;;8.00;7.00;;;29.09;101855.48;;;;117488;1188;24707;-60
2022/09/06 06:39:05;;;;;;;;;8.00;6.25;;;28.80;101856.30;;;;117590;1186;25473;-61
2022/09/06 06:41:33;;;;;;;;;8.75;7.25;;;28.59;101853.66;;;;117837;1187;24971;-60
2022/09/06 06:44:03;;;;;;;;;7.50;7.50;;;28.45;101854.25;;;;117533;1189;25782;-59
2022/09/06 06:46:34;;;;;;;;;10.00;8.00;;;28.32;101855.03;;;;117535;1189;24906;-60
2022/09/06 06:49:03;;;;;;;;;5.67;5.67;;;28.25;101859.02;;;;117449;1187;24729;-62
2022/09/06 06:51:35;;;;;;;;;7.67;7.00;;;28.19;101866.55;;;;117450;1190;24852;-62
2022/09/06 06:54:04;;;;;;;;;7.00;6.25;;;28.11;101863.59;;;;117450;1188;25508;-61
2022/09/06 06:56:39;;;;;;;;;7.00;5.25;;;28.07;101868.94;;;;117469;1189;25044;-60
2022/09/06 06:59:08;;;;;;;;;7.25;6.50;;;28.07;101872.74;;;;117454;1189;25593;-60
2022/09/06 07:01:36;;;;;;;;;9.00;8.00;;;28.05;101868.23;;;;117443;1189;25427;-59
2022/09/06 07:04:05;;;;;;;;;7.50;6.00;;;28.02;101869.12;;;;117484;1189;24759;-59
2022/09/06 07:06:53;;;;;;;;;10.67;9.33;;;28.01;101868.34;;;;117573;1187;25162;-62
2022/09/06 07:09:42;;;;;;;;;9.25;6.75;;;28.07;101864.58;;;;117569;1188;24679;-62
2022/09/06 07:12:31;;;;;;;;;8.00;6.25;;;28.09;101869.51;;;;117378;1190;25215;-62
2022/09/06 07:14:59;;;;;;;;;9.00;8.00;;;28.08;101872.07;;;;117465;1189;25425;-62
2022/09/06 07:17:28;;;;;;;;;8.50;5.75;;;28.04;101872.30;;;;117360;1190;25018;-63
2022/09/06 07:19:56;;;;;;;;;10.00;7.50;;;28.02;101873.70;;;;117447;1189;25323;-62
2022/09/06 07:22:41;;;;;;;;;11.00;5.50;;;28.01;101873.74;;;;117378;1189;25536;-63
2022/09/06 07:25:12;;;;;;;;;11.50;8.00;;;28.01;101870.34;;;;117458;1189;25535;-62
2022/09/06 07:27:43;;;;;;;;;6.50;6.50;;;28.00;101868.75;;;;117741;1187;25626;-64
2022/09/06 07:30:13;;;;;;;;;8.75;7.75;;;28.08;101864.98;;;;117422;1190;24869;-62
2022/09/06 07:32:41;;;;;;;;;11.00;7.67;;;28.01;101867.64;;;;117392;1190;25362;-62
2022/09/06 07:35:12;;;;;;;;;9.00;8.25;;;27.98;101873.02;;;;117430;1189;25652;-63
2022/09/06 07:37:41;;;;;;;;;5.75;5.00;;;28.01;101872.48;;;;117546;1188;25544;-64
2022/09/06 07:40:10;;;;;;;;;7.25;6.75;;;28.00;101869.91;;;;117553;1188;24856;-63
2022/09/06 07:42:38;;;;;;;;;7.75;7.75;;;28.00;101870.19;;;;117447;1188;25538;-64
2022/09/06 07:45:08;;;;;;;;;8.00;6.75;;;28.04;101871.14;;;;117471;1189;25035;-63
2022/09/06 07:47:36;;;;;;;;;9.00;8.25;;;28.03;101874.14;;;;117452;1188;25666;-64
2022/09/06 07:50:26;;;;;;;;;9.00;7.50;;;28.07;101869.46;;;;117313;1188;25310;-66
2022/09/06 07:53:10;;;;;;;;;6.75;6.75;;;28.17;101866.35;;;;117852;1188;24919;-69
2022/09/06 07:55:42;;;;;;;;;9.50;7.00;;;28.19;101863.84;;;;117534;1189;24966;-70
2022/09/06 07:58:11;;;;;;;;;9.00;7.75;;;28.18;101863.02;;;;117481;1189;25201;-70
2022/09/06 08:00:39;;;;;;;;;12.00;8.33;;;28.16;101858.45;;;;117455;1190;25149;-70
2022/09/06 08:03:09;;;;;;;;;12.25;5.75;;;28.16;101857.24;;;;117498;1187;25322;-67
2022/09/06 08:05:37;;;;;;;;;7.75;7.00;;;28.18;101856.40;;;;117435;1188;25639;-67
2022/09/06 08:08:26;;;;;;;;;6.75;6.75;;;28.21;101851.69;;;;117772;1188;25563;-67
2022/09/06 08:11:14;;;;;;;;;11.00;6.25;;;28.26;101850.84;;;;117558;1189;25128;-65
2022/09/06 08:13:43;;;;;;;;;10.50;7.25;;;28.27;101849.73;;;;117487;1189;25316;-68
2022/09/06 08:16:12;;;;;;;;;9.75;8.50;;;28.25;101850.05;;;;117671;1188;25596;-68
2022/09/06 08:18:42;;;;;;;;;7.67;5.00;;;28.25;101851.91;;;;117549;1189;25007;-69
2022/09/06 08:21:13;;;;;;;;;7.75;6.25;;;28.23;101849.15;;;;117487;1189;25576;-67
2022/09/06 08:23:52;;;;;;;;;4.75;4.75;;;28.23;101844.95;;;;117375;1191;24937;-67
2022/09/06 08:26:22;;;;;;;;;9.25;7.00;;;28.24;101843.54;;;;117418;1188;24831;-67
2022/09/06 08:28:57;;;;;;;;;7.50;6.25;;;28.25;101840.50;;;;117459;1189;24867;-63
2022/09/06 08:31:26;;;;;;;;;9.00;8.25;;;28.27;101837.85;;;;117372;1189;25148;-63
2022/09/06 08:33:56;;;;;;;;;11.67;8.00;;;28.28;101835.25;;;;117418;1189;25759;-63
2022/09/06 08:36:31;;;;;;;;;10.00;7.25;;;28.28;101832.02;;;;117423;1189;24873;-64
2022/09/06 08:39:04;;;;;;;;;9.00;6.75;;;28.28;101832.94;;;;117393;1189;25046;-63
2022/09/06 08:41:39;;;;;;;;;7.00;7.00;;;28.28;101831.87;;;;117435;1188;25447;-63
2022/09/06 08:44:10;;;;;;;;;12.50;8.50;;;28.31;101833.52;;;;117498;1189;25577;-62
2022/09/06 08:47:07;;;;;;;;;9.00;7.50;;;28.35;101829.55;;;;117547;1186;25178;-62
2022/09/06 08:49:57;;;;;;;;;8.00;8.00;;;28.38;101824.52;;;;117508;1188;25722;-62
2022/09/06 08:52:37;;;;;;;;;7.33;5.00;;;28.41;101823.36;;;;117332;1189;25521;-62
2022/09/06 08:55:36;;;;;;;;;11.50;7.25;;;28.47;101824.23;;;;117677;1188;25430;-62
2022/09/06 08:58:26;;;;;;;;;5.00;5.00;;;28.48;101820.48;;;;117791;1188;25775;-62
2022/09/06 09:01:15;;;;;;;;;12.75;8.25;;;28.48;101816.11;;;;117402;1189;25448;-61
2022/09/06 09:03:44;;;;;;;;;8.00;6.67;;;28.46;101813.22;;;;117430;1189;24816;-64
2022/09/06 09:06:13;;;;;;;;;13.67;8.33;;;28.51;101807.48;;;;117484;1189;25344;-62
2022/09/06 09:08:52;;;;;;;;;14.33;11.00;;;28.44;101810.33;;;;117483;1189;25575;-64
2022/09/06 09:11:24;;;;;;;;;9.00;8.00;;;28.42;101810.69;;;;117516;1189;24916;-63
2022/09/06 09:14:05;;;;;;;;;9.00;7.00;;;28.42;101807.98;;;;117494;1188;25415;-62
2022/09/06 09:16:33;;;;;;;;;10.33;10.33;;;28.45;101807.42;;;;117504;1189;25513;-64
2022/09/06 09:19:04;;;;;;;;;7.75;7.75;;;28.45;101809.36;;;;117503;1188;25539;-64
2022/09/06 09:21:36;;;;;;;;;9.00;7.25;;;28.44;101808.02;;;;117489;1188;25309;-63
2022/09/06 09:24:08;;;;;;;;;9.50;9.00;;;28.46;101809.52;;;;117784;1187;25737;-61
2022/09/06 09:27:12;;;;;;;;;10.25;8.50;;;28.47;101809.02;;;;117706;1188;25064;-64
2022/09/06 09:29:53;;;;;;;;;16.00;9.75;;;28.59;101810.70;;;;117408;1188;25037;-64
2022/09/06 09:32:45;;;;;;;;;14.50;9.50;;;28.64;101810.77;;;;117387;1190;25514;-62
2022/09/06 09:35:26;;;;;;;;;12.25;10.25;;;28.65;101809.70;;;;117755;1189;25045;-63
2022/09/06 09:38:19;;;;;;;;;9.33;8.67;;;28.65;101806.29;;;;117427;1189;24746;-61
2022/09/06 09:41:02;;;;;;;;;9.75;8.00;;;28.66;101807.73;;;;117407;1188;24706;-62
2022/09/06 09:43:35;;;;;;;;;16.25;8.25;;;28.75;101799.52;;;;117469;1189;25225;-61
2022/09/06 09:46:22;;;;;;;;;10.25;9.50;;;28.73;101790.27;;;;117443;1189;25681;-61
2022/09/06 09:49:12;;;;;;;;;11.75;9.00;;;28.69;101791.16;;;;117361;1189;25434;-61
2022/09/06 09:51:46;;;;;;;;;13.75;10.50;;;28.67;101788.87;;;;117553;1189;24853;-62
2022/09/06 09:54:29;;;;;;;;;15.25;9.75;;;28.65;101792.07;;;;117228;1191;24994;-62
2022/09/06 09:56:58;;;;;;;;;8.00;8.00;;;28.69;101784.27;;;;117465;1187;25597;-61
2022/09/06 10:00:11;;;;;;;;;9.75;9.75;;;28.71;101782.50;;;;117243;1189;25530;-62
2022/09/06 10:02:41;;;;;;;;;11.75;9.25;;;28.82;101777.99;;;;117653;1187;25642;-62
2022/09/06 10:05:12;;;;;;;;;10.25;8.00;;;28.80;101779.70;;;;117449;1189;25090;-63
2022/09/06 10:07:52;;;;;;;;;8.50;8.50;;;28.74;101779.02;;;;117650;1187;25221;-62
2022/09/06 10:10:25;;;;;;;;;7.50;7.50;;;28.71;101780.19;;;;117589;1188;25000;-64
2022/09/06 10:13:18;;;;;;;;;8.25;8.00;;;28.69;101783.00;;;;117806;1186;25302;-61
2022/09/06 10:15:48;;;;;;;;;9.25;7.25;;;28.67;101782.45;;;;117799;1187;25438;-61
2022/09/06 10:18:29;;;;;;;;;7.75;7.25;;;28.63;101778.41;;;;117404;1189;24902;-63
2022/09/06 10:21:10;;;;;;;;;9.00;9.00;;;28.62;101775.64;;;;117494;1188;25486;-61
2022/09/06 10:24:15;;;;;;;;;13.50;9.75;;;28.62;101777.48;;;;117827;1188;25075;-62
2022/09/06 10:27:03;;;;;;;;;8.25;8.25;;;28.61;101778.21;;;;117505;1189;25058;-62
2022/09/06 10:29:35;;;;;;;;;11.75;8.75;;;28.60;101778.27;;;;117496;1189;25320;-62
2022/09/06 10:32:06;;;;;;;;;11.00;8.50;;;28.57;101776.83;;;;117428;1187;25701;-64
2022/09/06 10:34:53;;;;;;;;;9.25;7.00;;;28.51;101773.98;;;;117729;1188;24954;-62
2022/09/06 10:37:28;;;;;;;;;11.25;10.50;;;28.52;101770.20;;;;117472;1189;25819;-69
2022/09/06 10:40:10;;;;;;;;;15.67;10.33;;;28.39;101776.41;;;;117495;1188;24880;-63
2022/09/06 10:42:51;;;;;;;;;14.00;9.00;;;28.45;101769.44;;;;117878;1188;25595;-63
2022/09/06 10:45:30;;;;;;;;;6.00;3.00;;;28.45;101766.08;;;;117541;1189;25634;-63
2022/09/06 10:48:07;;;;;;;;;11.00;8.00;;;28.44;101757.71;;;;117516;1189;24938;-63
2022/09/06 10:51:19;;;;;;;;;12.00;8.00;;;28.45;101755.85;;;;117863;1188;25646;-62
2022/09/06 10:53:55;;;;;;;;;7.00;6.67;;;28.50;101752.84;;;;117339;1189;25373;-63
2022/09/06 10:56:42;;;;;;;;;14.75;9.50;;;28.51;101748.61;;;;117530;1188;24988;-64
2022/09/06 10:59:24;;;;;;;;;14.50;10.00;;;28.47;101748.88;;;;117484;1190;25717;-63
2022/09/06 11:02:40;;;;;;;;;14.33;11.67;;;28.52;101746.29;;;;117512;1187;25670;-62
2022/09/06 11:05:11;;;;;;;;;9.75;8.75;;;28.52;101744.16;;;;117484;1189;25022;-62
2022/09/06 11:08:02;;;;;;;;;10.75;7.75;;;28.51;101738.70;;;;117523;1188;25235;-63
2022/09/06 11:10:54;;;;;;;;;8.00;7.00;;;28.52;101735.08;;;;117721;1188;24971;-66
2022/09/06 11:13:26;;;;;;;;;7.50;7.50;;;28.49;101734.27;;;;117466;1189;25362;-62
2022/09/06 11:16:07;;;;;;;;;7.25;6.50;;;28.44;101732.73;;;;117440;1189;25033;-64
2022/09/06 11:18:49;;;;;;;;;9.25;8.50;;;28.39;101731.92;;;;117784;1188;25546;-62
2022/09/06 11:22:01;;;;;;;;;10.25;8.25;;;28.37;101729.00;;;;117701;1188;25352;-63
2022/09/06 11:24:45;;;;;;;;;11.00;7.50;;;28.48;101728.05;;;;117596;1189;25670;-63
2022/09/06 11:27:13;;;;;;;;;10.00;9.00;;;28.47;101730.20;;;;117495;1188;24902;-63
2022/09/06 11:29:44;;;;;;;;;9.25;9.25;;;28.47;101728.05;;;;117494;1188;25032;-65
2022/09/06 11:32:35;;;;;;;;;10.00;9.00;;;28.35;101721.98;;;;117524;1189;25486;-67
2022/09/06 11:35:10;;;;;;;;;11.50;9.75;;;28.32;101720.12;;;;117464;1187;24670;-71
2022/09/06 11:37:43;;;;;;;;;11.75;10.00;;;28.30;101717.35;;;;117496;1188;25009;-76
2022/09/06 11:40:15;;;;;;;;;8.75;8.75;;;28.26;101711.10;;;;117520;1187;24983;-72
2022/09/06 11:42:59;;;;;;;;;12.25;11.50;;;28.30;101714.35;;;;117518;1189;25177;-70
2022/09/06 11:45:54;;;;;;;;;7.75;7.50;;;28.38;101710.39;;;;117851;1187;25134;-70
2022/09/06 11:48:22;;;;;;;;;13.50;9.50;;;28.36;101710.19;;;;117475;1189;25182;-64
2022/09/06 11:50:57;;;;;;;;;14.25;9.00;;;28.35;101707.27;;;;117455;1188;25766;-68
2022/09/06 11:53:57;;;;;;;;;12.75;9.25;;;28.28;101709.60;;;;117959;1186;25257;-67
2022/09/06 11:56:33;;;;;;;;;10.00;10.00;;;28.36;101705.56;;;;117453;1189;25321;-67
2022/09/06 11:59:23;;;;;;;;;12.00;11.50;;;28.38;101703.54;;;;117415;1190;25050;-71
2022/09/06 12:01:54;;;;;;;;;15.50;10.00;;;28.33;101699.32;;;;117479;1189;25452;-66
2022/09/06 12:04:23;;;;;;;;;9.00;9.00;;;28.30;101696.05;;;;117443;1190;24848;-68
2022/09/06 12:07:06;;;;;;;;;12.00;9.00;;;28.30;101693.33;;;;117437;1188;25352;-69
2022/09/06 12:09:45;;;;;;;;;9.33;9.00;;;28.28;101694.63;;;;117450;1189;25097;-68
2022/09/06 12:12:38;;;;;;;;;10.00;9.00;;;28.26;101695.73;;;;117453;1190;25340;-68
2022/09/06 12:15:42;;;;;;;;;7.67;7.00;;;28.30;101693.35;;;;117426;1189;25498;-69
2022/09/06 12:18:42;;;;;;;;;10.00;8.25;;;28.35;101691.09;;;;117337;1189;25116;-67
2022/09/06 12:21:30;;;;;;;;;13.75;11.25;;;28.39;101689.60;;;;117431;1190;25303;-67
2022/09/06 12:23:59;;;;;;;;;9.50;7.75;;;28.40;101685.02;;;;117435;1189;25630;-66
2022/09/06 12:27:16;;;;;;;;;8.25;7.25;;;28.38;101685.27;;;;117436;1190;25363;-67
2022/09/06 12:29:59;;;;;;;;;10.67;10.33;;;28.52;101677.79;;;;117129;1193;25110;-68
2022/09/06 12:32:37;;;;;;;;;15.00;10.50;;;28.39;101680.13;;;;117433;1189;25555;-68
2022/09/06 12:35:13;;;;;;;;;9.50;9.00;;;28.35;101676.84;;;;117427;1190;24975;-66
2022/09/06 12:38:05;;;;;;;;;4.75;4.75;;;28.35;101668.23;;;;117429;1188;25295;-64